Flight Track Log - Related Links

Times and Time Zones

All times are in EDT time to prevent confusion due to time zone crossing. See the SKW5162 flight status page for this flight to view local times or setup timezone preferences in your user account.

Time Position Orientation Groundspeed Altitude Reporting Facility
EDT Latitude Longitude Course Direction KTS MPH feet Rate Location/Type
Tue 06:39:57 AM 40.4817 -80.3456 214° Southwest 208 239 4,100  Level Cleveland Center
Tue 06:40:57 AM 40.4150 -80.3514 184° South 283 326 5,700 2,000 Climbing Cleveland Center
Tue 06:41:00 AM 40.1442 -80.3213 192° South  Level FlightAware
Tue 06:41:57 AM 40.3381 -80.3542 182° South 289 333 8,100  Level Cleveland Center
Tue 06:42:00 AM 40.0294 -80.3451 187° South  Level FlightAware
Tue 06:42:57 AM 40.2525 -80.3600 183° South 300 345 10,500  Level Cleveland Center
Tue 06:43:00 AM 39.9159 -80.3754 201° Southwest  Level FlightAware
Tue 06:43:57 AM 40.1586 -80.3686 184° South 319 367 12,100  Level Cleveland Center
Tue 06:44:00 AM 39.8208 -80.4612 214° Southwest  Level FlightAware
Tue 06:44:57 AM 40.0442 -80.3742 182° South 367 422 14,100  Level Cleveland Center
Tue 06:45:00 AM 39.7248 -80.5465 214° Southwest  Level FlightAware
Tue 06:45:57 AM 39.9336 -80.3828 183° South 389 448 15,900  Level Cleveland Center
Tue 06:46:57 AM 39.8419 -80.4586 212° Southwest 377 434 17,300 1,550 Climbing Cleveland Center
Tue 06:47:57 AM 39.7503 -80.5397 214° Southwest 382 440 19,000 1,665 Climbing Cleveland Center
Tue 06:49:50 AM 39.5747 -80.6969 215° Southwest 406 467 22,100 1,491 Climbing Indianapolis Center
Tue 06:50:50 AM 39.4786 -80.7847 215° Southwest 417 480 23,300 1,190 Climbing Indianapolis Center
Tue 06:51:51 AM 39.3792 -80.8731 214° Southwest 428 493 24,500 1,082 Climbing Indianapolis Center
Tue 06:52:52 AM 39.2775 -80.9636 215° Southwest 440 506 25,500 1,082 Climbing Indianapolis Center
Tue 06:53:53 AM 39.1725 -81.0556 214° Southwest 452 520 26,700 1,180 Climbing Indianapolis Center
Tue 06:54:54 AM 39.0986 -81.1722 231° Southwest 419 482 27,900 836 Climbing Indianapolis Center
Tue 06:55:55 AM 39.0483 -81.3083 245° Southwest 424 488 28,400 639 Climbing Indianapolis Center
Tue 06:56:56 AM 38.9953 -81.4478 244° Southwest 435 501 29,200 843 Climbing Indianapolis Center
Tue 06:57:56 AM 38.9417 -81.5886 244° Southwest 441 507 30,100 1,041 Climbing Indianapolis Center
Tue 06:58:57 AM 38.8886 -81.7289 244° Southwest 444 511 31,300 1,131 Climbing Indianapolis Center
Tue 06:59:58 AM 38.8350 -81.8658 243° Southwest 436 502 32,400 1,131 Climbing Indianapolis Center
Tue 07:00:59 AM 38.7711 -82.0319 244° Southwest 436 502 33,600 1,082 Climbing Indianapolis Center
Tue 07:02:00 AM 38.7183 -82.1672 243° Southwest 430 495 34,600 836 Climbing Indianapolis Center
Tue 07:03:01 AM 38.6653 -82.3019 243° Southwest 427 491 35,300 639 Climbing Indianapolis Center
Tue 07:04:02 AM 38.6114 -82.4386 243° Southwest 431 496 35,900 639 Climbing Indianapolis Center
Tue 07:05:03 AM 38.5533 -82.5875 244° Southwest 431 496 36,600 541 Climbing Indianapolis Center
Tue 07:06:04 AM 38.4989 -82.7225 243° Southwest 430 495 37,000 197 Climbing Indianapolis Center
Tue 07:07:05 AM 38.4433 -82.8628 243° Southwest 441 507 37,000 443 Level Indianapolis Center
Tue 07:08:06 AM 38.3872 -83.0039 243° Southwest 445 512 37,900 488 Climbing Indianapolis Center
Tue 07:09:08 AM 38.3322 -83.1400 243° Southwest 435 501 38,000 49 Climbing Indianapolis Center
Tue 07:10:09 AM 38.2756 -83.2808 243° Southwest 444 511 38,000  Level Indianapolis Center
Tue 07:11:10 AM 38.2181 -83.4222 243° Southwest 449 517 38,000  Level Indianapolis Center
Tue 07:12:11 AM 38.1606 -83.5628 243° Southwest 449 517 38,000  Level Indianapolis Center
Tue 07:13:12 AM 38.1031 -83.7036 243° Southwest 449 517 38,000  Level Indianapolis Center
Tue 07:14:13 AM 38.0356 -83.8683 243° Southwest 450 518 38,000  Level Indianapolis Center
Tue 07:15:15 AM 37.9775 -84.0081 242° Southwest 448 516 38,000  Level Indianapolis Center
Tue 07:16:16 AM 37.9147 -84.1472 240° Southwest 454 522 38,000  Level Indianapolis Center
Tue 07:17:17 AM 37.8486 -84.2847 239° Southwest 457 526 38,000  Level Indianapolis Center
Tue 07:18:19 AM 37.7806 -84.4228 238° Southwest 461 531 38,000  Level Indianapolis Center
Tue 07:19:20 AM 37.7136 -84.5606 238° Southwest 459 528 38,000  Level Indianapolis Center
Tue 07:20:21 AM 37.6469 -84.6981 239° Southwest 460 529 38,000  Level Indianapolis Center
Tue 07:21:23 AM 37.5783 -84.8378 238° Southwest 466 536 38,000  Level Indianapolis Center
Tue 07:22:24 AM 37.4989 -84.9978 238° Southwest 464 534 38,000  Level Indianapolis Center
Tue 07:23:25 AM 37.4319 -85.1361 239° Southwest 463 533 38,000  Level Indianapolis Center
Tue 07:24:27 AM 37.3628 -85.2725 237° Southwest 461 531 38,000  Level Indianapolis Center
Tue 07:25:28 AM 37.2944 -85.4097 238° Southwest 462 532 38,000  Level Indianapolis Center
Tue 07:26:30 AM 37.2217 -85.5539 238° Southwest 463 533 38,000  Level Indianapolis Center
Tue 07:27:31 AM 37.1517 -85.6919 238° Southwest 465 535 38,000  Level Indianapolis Center
Tue 07:28:20 AM 37.0964 -85.8058 239° Southwest 469 540 38,000  Level Memphis Center
Tue 07:29:20 AM 37.0261 -85.9422 237° Southwest 469 540 38,000  Level Memphis Center
Tue 07:30:20 AM 36.9539 -86.0786 236° Southwest 475 547 38,000  Level Memphis Center
Tue 07:31:20 AM 36.8933 -86.2011 238° Southwest 475 547 38,000  Level Memphis Center
Tue 07:32:20 AM 36.8231 -86.3369 237° Southwest 475 547 38,000  Level Memphis Center
Tue 07:33:20 AM 36.7522 -86.4728 237° Southwest 475 547 38,000  Level Memphis Center
Tue 07:34:20 AM 36.6814 -86.6131 238° Southwest 475 547 38,000  Level Memphis Center
Tue 07:35:20 AM 36.6125 -86.7456 237° Southwest 469 540 38,000  Level Memphis Center
Tue 07:36:20 AM 36.5414 -86.8831 237° Southwest 475 547 38,000  Level Memphis Center
Tue 07:37:20 AM 36.4722 -87.0253 239° Southwest 480 552 38,000  Level Memphis Center
Tue 07:38:20 AM 36.3967 -87.1600 235° Southwest 485 558 38,000  Level Memphis Center
Tue 07:39:20 AM 36.3231 -87.2969 236° Southwest 485 558 38,000  Level Memphis Center
Tue 07:40:20 AM 36.2511 -87.4308 236° Southwest 478 550 38,000  Level Memphis Center
Tue 07:41:20 AM 36.1792 -87.5672 237° Southwest 473 544 38,000  Level Memphis Center
Tue 07:42:20 AM 36.1072 -87.7006 236° Southwest 478 550 38,000  Level Memphis Center
Tue 07:43:20 AM 36.0350 -87.8389 237° Southwest 477 549 38,000  Level Memphis Center
Tue 07:44:20 AM 35.9525 -87.9878 236° Southwest 477 549 38,000  Level Memphis Center
Tue 07:45:20 AM 35.8778 -88.1256 236° Southwest 477 549 38,000  Level Memphis Center
Tue 07:46:20 AM 35.8153 -88.2400 236° Southwest 470 541 38,000  Level Memphis Center
Tue 07:47:20 AM 35.7381 -88.3750 235° Southwest 475 547 38,000  Level Memphis Center
Tue 07:48:20 AM 35.6569 -88.5225 236° Southwest 475 547 38,000  Level Memphis Center
Tue 07:49:20 AM 35.5797 -88.6619 236° Southwest 480 552 38,000  Level Memphis Center
Tue 07:50:20 AM 35.5044 -88.7961 235° Southwest 487 560 38,000  Level Memphis Center
Tue 07:51:20 AM 35.4433 -88.9172 238° Southwest 487 560 38,000  Level Memphis Center
Tue 07:52:20 AM 35.3656 -89.0533 235° Southwest 482 555 38,000  Level Memphis Center
Tue 07:53:20 AM 35.2917 -89.1844 235° Southwest 487 560 38,000  Level Memphis Center
Tue 07:54:20 AM 35.2178 -89.3200 236° Southwest 487 560 38,000  Level Memphis Center
Tue 07:55:20 AM 35.1439 -89.4506 235° Southwest 482 555 38,000  Level Memphis Center
Tue 07:56:20 AM 35.0717 -89.5833 236° Southwest 482 555 38,000  Level Memphis Center
Tue 07:57:20 AM 34.9994 -89.7158 236° Southwest 477 549 38,000  Level Memphis Center
Tue 07:58:20 AM 34.9061 -89.8583 231° Southwest 484 557 38,000  Level Memphis Center
Tue 07:59:20 AM 34.8419 -89.9928 240° Southwest 493 567 38,000  Level Memphis Center
Tue 08:00:20 AM 34.7672 -90.1194 234° Southwest 483 556 38,000  Level Memphis Center
Tue 08:01:20 AM 34.6903 -90.2486 234° Southwest 483 556 38,000  Level Memphis Center
Tue 08:02:20 AM 34.6150 -90.3772 235° Southwest 476 548 38,000  Level Memphis Center
Tue 08:03:20 AM 34.5400 -90.5058 235° Southwest 476 548 38,000  Level Memphis Center
Tue 08:04:20 AM 34.4667 -90.6342 235° Southwest 469 540 38,000  Level Memphis Center
Tue 08:05:20 AM 34.3828 -90.7750 234° Southwest 475 547 38,000  Level Memphis Center
Tue 08:06:20 AM 34.3092 -90.9028 235° Southwest 475 547 38,000  Level Memphis Center
Tue 08:07:20 AM 34.2314 -91.0303 234° Southwest 475 547 38,000  Level Memphis Center
Tue 08:08:20 AM 34.1597 -91.1578 236° Southwest 475 547 38,000  Level Memphis Center
Tue 08:09:20 AM 34.0839 -91.2825 234° Southwest 470 541 38,000  Level Memphis Center
Tue 08:10:20 AM 34.0097 -91.4072 234° Southwest 470 541 38,000  Level Memphis Center
Tue 08:11:20 AM 33.9314 -91.5364 234° Southwest 476 548 38,000  Level Memphis Center
Tue 08:12:20 AM 33.8592 -91.6631 236° Southwest 470 541 38,000  Level Memphis Center
Tue 08:14:22 AM 33.7142 -91.9003 234° Southwest 439 505 38,000  Level Fort Center
Tue 08:15:22 AM 33.6444 -92.0219 235° Southwest 444 511 38,000  Level Fort Center
Tue 08:16:22 AM 33.5703 -92.1461 234° Southwest 449 517 38,000  Level Fort Center
Tue 08:17:22 AM 33.4742 -92.2414 220° Southwest 454 522 38,000  Level Fort Center
Tue 08:18:22 AM 33.3528 -92.2858 197° South 435 501 38,000  Level Fort Center
Tue 08:19:22 AM 33.2331 -92.3175 192° South 440 506 38,000  Level Fort Center
Tue 08:20:22 AM 33.1114 -92.3519 193° South 445 512 38,000  Level Fort Center
Tue 08:21:22 AM 32.9897 -92.3861 193° South 450 518 38,000  Level Fort Center
Tue 08:22:22 AM 32.8658 -92.4228 194° South 450 518 38,000  Level Fort Center
Tue 08:23:22 AM 32.7419 -92.4567 193° South 450 518 38,000  Level Fort Center
Tue 08:25:24 AM 32.5028 -92.5328 195° South 461 531 38,000  Level Houston Center
Tue 08:26:25 AM 32.3558 -92.5747 194° South 455 524 38,000  Level Houston Center
Tue 08:27:27 AM 32.2342 -92.6078 193° South 450 518 38,000  Level Houston Center
Tue 08:28:28 AM 32.1117 -92.6414 193° South 452 520 38,000  Level Houston Center
Tue 08:29:30 AM 31.9900 -92.6769 194° South 452 520 38,000  Level Houston Center
Tue 08:30:31 AM 31.8928 -92.7569 215° Southwest 429 494 38,000  Level Houston Center
Tue 08:31:33 AM 31.8022 -92.8464 220° Southwest 425 489 38,000  Level Houston Center
Tue 08:32:35 AM 31.7117 -92.9319 219° Southwest 422 486 38,000  Level Houston Center
Tue 08:33:36 AM 31.6006 -93.0342 218° Southwest 424 488 38,000  Level Houston Center
Tue 08:34:38 AM 31.5125 -93.1233 221° Southwest 422 486 38,000  Level Houston Center
Tue 08:35:39 AM 31.4211 -93.2083 218° Southwest 421 484 38,000  Level Houston Center
Tue 08:36:41 AM 31.3306 -93.2969 220° Southwest 421 484 38,000  Level Houston Center
Tue 08:37:43 AM 31.2406 -93.3817 219° Southwest 423 487 38,000  Level Houston Center
Tue 08:38:44 AM 31.1514 -93.4653 219° Southwest 417 480 38,000 -878 Level Houston Center
Tue 08:39:46 AM 31.0683 -93.5622 225° Southwest 422 486 36,200 -2,468 Descending Houston Center
Tue 08:40:48 AM 30.9739 -93.6858 228° Southwest 425 489 32,900 -3,122 Descending Houston Center
Tue 08:41:49 AM 30.8936 -93.7894 228° Southwest 439 505 29,800 -3,024 Descending Houston Center
Tue 08:42:51 AM 30.8136 -93.8908 227° Southwest 431 496 26,700 -2,976 Descending Houston Center
Tue 08:43:52 AM 30.7350 -93.9917 228° Southwest 427 491 23,700 -2,976 Descending Houston Center
Tue 08:44:54 AM 30.6547 -94.0947 228° Southwest 430 495 20,600 -2,855 Descending Houston Center
Tue 08:45:56 AM 30.5758 -94.1953 228° Southwest 427 491 17,800 -2,966 Descending Houston Center
Tue 08:46:21 AM 30.5353 -94.2450 227° Southwest 379 436 16,300 -3,000 Descending Houston Center
Tue 08:46:46 AM 30.5161 -94.2839 240° Southwest 344 396 15,300 -2,302 Descending Houston Center
Tue 08:47:47 AM 30.4642 -94.3756 237° Southwest 335 386 13,000 -2,049 Descending Houston Center
Tue 08:48:49 AM 30.3869 -94.4439 217° Southwest 336 387 11,100 -1,426 Descending Houston Center
Tue 08:49:49 AM 30.3219 -94.5106 222° Southwest 289 333 10,100 -984 Descending Houston Center
Tue 08:50:51 AM 30.2606 -94.5694 220° Southwest 292 336 9,100 -976 Descending Houston Center
Tue 08:51:52 AM 30.1972 -94.6331 221° Southwest 288 331 8,100 -984 Descending Houston Center
Tue 08:52:53 AM 30.1358 -94.6917 220° Southwest 280 322 7,100 -984 Descending Houston Center
Tue 08:53:54 AM 30.0783 -94.7497 221° Southwest 270 311 6,100 -868 Descending Houston Center
Tue 08:54:09 AM 30.0703 -94.7569 218° Southwest 270 311 6,000 -393 Descending Houston Center
Tue 08:54:55 AM 30.0225 -94.8028 220° Southwest 254 292 5,700 -387 Descending Houston Center
Tue 08:55:11 AM 30.0169 -94.8103 229° Southwest 257 296 5,600 -677 Descending Houston Center
Tue 08:55:57 AM 30.0078 -94.8697 260° West 219 252 5,000 -590 Descending Houston Center
Tue 08:56:12 AM 30.0083 -94.8778 275° West 230 265 5,000 98 Level Houston Center
Tue 08:56:58 AM 30.0056 -94.9353 267° West 192 221 5,100  Climbing Houston Center
Tue 08:57:14 AM 30.0075 -94.9389 302° West 201 231 5,000 -896 Descending Houston Center
Tue 08:58:05 AM 30.0097 -95.0022 272° West 189 217 4,100 -911 Descending Houston Center
Tue 08:59:06 AM 30.0072 -95.0631 267° West 184 212 3,300 -492 Descending Houston Center
Tue 09:00:07 AM 30.0083 -95.1208 271° West 182 209 3,100 -197 Descending Houston Center
Tue 09:01:08 AM 30.0078 -95.1811 269° West 189 217 2,900 -634 Descending Houston Center
Tue 09:02:10 AM 30.0064 -95.2344 268° West 166 191 1,800 -1,065 Descending Houston Center

Login

Don't have an account? Register now (free) for customized features, flight alerts, and more!